createdAt,value
2022-07-26T00:00:24.057Z,1007.14
2022-07-26T00:01:24.146Z,1007.15
2022-07-26T00:02:25.070Z,1007.14
2022-07-26T00:03:24.052Z,1007.13
2022-07-26T00:04:24.032Z,1007.13
2022-07-26T00:05:24.023Z,1007.16
2022-07-26T00:06:23.999Z,1007.17
2022-07-26T00:07:24.007Z,1007.17
2022-07-26T00:08:23.981Z,1007.15
2022-07-26T00:09:23.985Z,1007.13
2022-07-26T00:10:23.970Z,1007.14
2022-07-26T00:11:23.954Z,1007.13
2022-07-26T00:12:23.963Z,1007.16
2022-07-26T00:13:23.931Z,1007.15
2022-07-26T00:14:23.931Z,1007.14
2022-07-26T00:15:23.903Z,1007.14
2022-07-26T00:16:23.917Z,1007.16
2022-07-26T00:17:23.884Z,1007.17
2022-07-26T00:18:23.877Z,1007.15
2022-07-26T00:19:23.882Z,1007.18
2022-07-26T00:20:23.857Z,1007.12
2022-07-26T00:21:23.844Z,1007.19
2022-07-26T00:22:23.902Z,1007.19
2022-07-26T00:23:23.827Z,1007.17
2022-07-26T00:24:23.820Z,1007.19
2022-07-26T00:25:23.809Z,1007.19
2022-07-26T00:26:23.795Z,1007.18
2022-07-26T00:27:23.776Z,1007.15
2022-07-26T00:28:23.765Z,1007.17
2022-07-26T00:29:23.777Z,1007.11
2022-07-26T00:30:23.741Z,1007.17
2022-07-26T00:31:23.792Z,1007.15
2022-07-26T00:32:23.748Z,1007.11
2022-07-26T00:33:23.728Z,1007.16
2022-07-26T00:34:23.708Z,1007.19
2022-07-26T00:35:23.701Z,1007.16
2022-07-26T00:36:23.708Z,1007.16
2022-07-26T00:37:23.669Z,1007.15
2022-07-26T00:38:23.672Z,1007.18
2022-07-26T00:39:23.651Z,1007.19
2022-07-26T00:40:23.641Z,1007.20
2022-07-26T00:41:23.641Z,1007.22
2022-07-26T00:42:23.640Z,1007.23
2022-07-26T00:43:23.621Z,1007.28
2022-07-26T00:44:23.618Z,1007.22
2022-07-26T00:45:23.600Z,1007.22
2022-07-26T00:46:23.710Z,1007.23
2022-07-26T00:47:23.573Z,1007.23
2022-07-26T00:48:23.553Z,1007.26
2022-07-26T00:49:23.592Z,1007.23
2022-07-26T00:50:23.533Z,1007.24
2022-07-26T00:51:23.515Z,1007.19
2022-07-26T00:52:23.513Z,1007.23
2022-07-26T00:53:23.514Z,1007.25
2022-07-26T00:54:23.483Z,1007.25
2022-07-26T00:55:23.484Z,1007.24
2022-07-26T00:56:23.472Z,1007.27
2022-07-26T00:57:23.457Z,1007.24
2022-07-26T00:58:23.458Z,1007.28
2022-07-26T00:59:23.436Z,1007.27
2022-07-26T01:00:23.416Z,1007.28
2022-07-26T01:01:23.492Z,1007.29
2022-07-26T01:02:23.482Z,1007.29
2022-07-26T01:03:23.405Z,1007.32
2022-07-26T01:04:24.377Z,1007.31
2022-07-26T01:05:23.368Z,1007.32
2022-07-26T01:06:27.108Z,1007.31
2022-07-26T01:07:23.357Z,1007.30
2022-07-26T01:08:23.372Z,1007.27
2022-07-26T01:09:23.365Z,1007.27
2022-07-26T01:10:23.322Z,1007.31
2022-07-26T01:11:23.328Z,1007.33
2022-07-26T01:12:23.308Z,1007.35
2022-07-26T01:13:23.301Z,1007.28
2022-07-26T01:14:23.299Z,1007.29
2022-07-26T01:15:23.267Z,1007.36
2022-07-26T01:16:23.333Z,1007.32
2022-07-26T01:17:23.259Z,1007.32
2022-07-26T01:18:23.242Z,1007.34
2022-07-26T01:19:23.241Z,1007.33
2022-07-26T01:20:23.220Z,1007.33
2022-07-26T01:21:23.201Z,1007.33
2022-07-26T01:22:23.202Z,1007.32
2022-07-26T01:23:23.184Z,1007.35
2022-07-26T01:24:23.183Z,1007.32
2022-07-26T01:25:23.161Z,1007.28
2022-07-26T01:26:23.164Z,1007.35
2022-07-26T01:27:23.135Z,1007.35
2022-07-26T01:28:23.144Z,1007.35
2022-07-26T01:29:23.133Z,1007.35
2022-07-26T01:30:24.113Z,1007.39
2022-07-26T01:31:23.185Z,1007.36
2022-07-26T01:32:23.102Z,1007.41
2022-07-26T01:33:23.064Z,1007.38
2022-07-26T01:34:23.085Z,1007.43
2022-07-26T01:35:23.055Z,1007.41
2022-07-26T01:36:23.041Z,1007.42
2022-07-26T01:37:23.035Z,1007.39
2022-07-26T01:38:23.020Z,1007.40
2022-07-26T01:39:23.015Z,1007.45
2022-07-26T01:40:22.988Z,1007.46
2022-07-26T01:41:37.362Z,1007.46
2022-07-26T01:42:24.036Z,1007.46
2022-07-26T01:43:22.985Z,1007.49
2022-07-26T01:44:22.965Z,1007.50
2022-07-26T01:45:22.938Z,1007.53
2022-07-26T01:46:22.960Z,1007.51
2022-07-26T01:47:22.918Z,1007.54
2022-07-26T01:48:22.928Z,1007.55
2022-07-26T01:49:22.909Z,1007.57
2022-07-26T01:50:22.899Z,1007.56
2022-07-26T01:51:22.868Z,1007.57
2022-07-26T01:52:22.880Z,1007.57
2022-07-26T01:53:22.869Z,1007.52
2022-07-26T01:54:24.615Z,1007.53
2022-07-26T01:55:22.833Z,1007.56
2022-07-26T01:56:22.821Z,1007.50
2022-07-26T01:57:22.818Z,1007.47
2022-07-26T01:58:22.881Z,1007.50
2022-07-26T01:59:22.780Z,1007.52
2022-07-26T02:00:22.780Z,1007.53
2022-07-26T02:01:38.054Z,1007.55
2022-07-26T02:02:23.850Z,1007.54
2022-07-26T02:03:22.851Z,1007.52
2022-07-26T02:04:22.749Z,1007.53
2022-07-26T02:05:22.732Z,1007.60
2022-07-26T02:06:22.722Z,1007.58
2022-07-26T02:07:22.693Z,1007.61
2022-07-26T02:08:22.724Z,1007.62
2022-07-26T02:09:22.687Z,1007.57
2022-07-26T02:10:22.684Z,1007.62
2022-07-26T02:11:22.647Z,1007.66
2022-07-26T02:12:22.635Z,1007.61
2022-07-26T02:13:22.636Z,1007.62
2022-07-26T02:14:25.660Z,1007.63
2022-07-26T02:15:22.595Z,1007.65
2022-07-26T02:16:22.651Z,1007.66
2022-07-26T02:17:22.580Z,1007.66
2022-07-26T02:18:22.576Z,1007.66
2022-07-26T02:19:22.557Z,1007.64
2022-07-26T02:20:22.548Z,1007.67
2022-07-26T02:21:22.532Z,1007.64
2022-07-26T02:22:22.528Z,1007.66
2022-07-26T02:23:22.519Z,1007.68
2022-07-26T02:24:22.497Z,1007.66
2022-07-26T02:25:22.499Z,1007.68
2022-07-26T02:26:22.479Z,1007.70
2022-07-26T02:27:22.470Z,1007.69
2022-07-26T02:28:22.470Z,1007.71
2022-07-26T02:29:22.458Z,1007.71
2022-07-26T02:30:22.439Z,1007.72
2022-07-26T02:31:22.513Z,1007.74
2022-07-26T02:32:23.421Z,1007.75
2022-07-26T02:33:22.409Z,1007.76
2022-07-26T02:34:22.390Z,1007.76
2022-07-26T02:35:22.434Z,1007.74
2022-07-26T02:36:22.379Z,1007.79
2022-07-26T02:37:22.362Z,1007.77
2022-07-26T02:38:22.360Z,1007.71
2022-07-26T02:39:22.342Z,1007.79
2022-07-26T02:40:22.342Z,1007.79
2022-07-26T02:41:22.323Z,1007.76
2022-07-26T02:42:22.302Z,1007.77
2022-07-26T02:43:22.310Z,1007.78
2022-07-26T02:44:22.283Z,1007.81
2022-07-26T02:45:22.284Z,1007.86
2022-07-26T02:46:22.342Z,1007.85
2022-07-26T02:47:22.254Z,1007.89
2022-07-26T02:48:22.254Z,1007.93
2022-07-26T02:49:22.234Z,1007.92
2022-07-26T02:50:22.227Z,1007.93
2022-07-26T02:51:22.212Z,1007.90
2022-07-26T02:52:22.196Z,1007.90
2022-07-26T02:53:22.199Z,1007.92
2022-07-26T02:54:22.185Z,1007.92
2022-07-26T02:55:22.171Z,1007.89
2022-07-26T02:56:22.155Z,1007.92
2022-07-26T02:57:22.147Z,1007.96
2022-07-26T02:58:22.137Z,1007.98
2022-07-26T02:59:22.119Z,1007.93
2022-07-26T03:00:22.123Z,1007.93
2022-07-26T03:01:22.156Z,1007.92
2022-07-26T03:02:22.168Z,1007.90
2022-07-26T03:03:22.088Z,1007.90
2022-07-26T03:04:22.070Z,1007.90
2022-07-26T03:05:22.061Z,1007.89
2022-07-26T03:06:22.038Z,1007.91
2022-07-26T03:07:22.041Z,1007.91
2022-07-26T03:08:22.039Z,1007.93
2022-07-26T03:09:22.010Z,1007.95
2022-07-26T03:10:22.000Z,1007.95
2022-07-26T03:11:21.992Z,1007.94
2022-07-26T03:12:21.979Z,1007.96
2022-07-26T03:13:21.991Z,1007.96
2022-07-26T03:14:21.960Z,1007.97
2022-07-26T03:15:21.963Z,1007.96
2022-07-26T03:16:24.873Z,1007.92
2022-07-26T03:17:22.944Z,1007.87
2022-07-26T03:18:21.913Z,1007.93
2022-07-26T03:19:21.924Z,1007.90
2022-07-26T03:20:21.895Z,1007.95
2022-07-26T03:21:21.895Z,1007.95
2022-07-26T03:22:21.875Z,1007.94
2022-07-26T03:23:21.865Z,1007.93
2022-07-26T03:24:21.865Z,1007.90
2022-07-26T03:25:21.852Z,1007.89
2022-07-26T03:26:21.833Z,1007.95
2022-07-26T03:27:21.823Z,1007.95
2022-07-26T03:28:21.816Z,1007.93
2022-07-26T03:29:21.808Z,1007.94
2022-07-26T03:30:24.656Z,1007.96
2022-07-26T03:31:21.867Z,1007.95
2022-07-26T03:32:21.781Z,1007.96
2022-07-26T03:33:21.786Z,1007.96
2022-07-26T03:34:21.748Z,1007.96
2022-07-26T03:35:21.757Z,1007.95
2022-07-26T03:36:21.727Z,1007.94
2022-07-26T03:37:21.726Z,1007.97
2022-07-26T03:38:21.699Z,1007.98
2022-07-26T03:39:21.707Z,1007.97
2022-07-26T03:40:21.690Z,1007.94
2022-07-26T03:41:21.721Z,1007.97
2022-07-26T03:42:21.660Z,1007.98
2022-07-26T03:43:23.362Z,1007.97
2022-07-26T03:44:21.667Z,1007.99
2022-07-26T03:45:21.630Z,1007.98
2022-07-26T03:46:21.707Z,1007.99
2022-07-26T03:47:21.621Z,1007.99
2022-07-26T03:48:21.594Z,1007.97
2022-07-26T03:49:21.661Z,1007.98
2022-07-26T03:50:21.613Z,1007.98
2022-07-26T03:51:21.568Z,1008.01
2022-07-26T03:52:21.563Z,1008.08
2022-07-26T03:53:21.551Z,1008.07
2022-07-26T03:54:21.550Z,1008.11
2022-07-26T03:55:21.534Z,1008.12
2022-07-26T03:56:21.528Z,1008.15
2022-07-26T03:57:21.510Z,1008.13
2022-07-26T03:58:21.497Z,1008.10
2022-07-26T03:59:21.495Z,1008.10
2022-07-26T04:00:21.465Z,1008.12
2022-07-26T04:01:21.499Z,1008.15
2022-07-26T04:02:21.563Z,1008.14
2022-07-26T04:03:21.434Z,1008.15
2022-07-26T04:04:25.129Z,1008.17
2022-07-26T04:05:22.762Z,1008.18
2022-07-26T04:06:23.112Z,1008.20
2022-07-26T04:07:21.415Z,1008.22
2022-07-26T04:08:21.385Z,1008.27
2022-07-26T04:09:21.397Z,1008.24
2022-07-26T04:10:21.408Z,1008.23
2022-07-26T04:11:21.365Z,1008.24
2022-07-26T04:12:21.345Z,1008.23
2022-07-26T04:13:21.336Z,1008.23
2022-07-26T04:14:21.329Z,1008.22
2022-07-26T04:15:21.359Z,1008.22
2022-07-26T04:16:21.367Z,1008.24
2022-07-26T04:17:21.335Z,1008.26
2022-07-26T04:18:21.291Z,1008.28
2022-07-26T04:19:21.288Z,1008.27
2022-07-26T04:20:21.259Z,1008.30
2022-07-26T04:21:21.251Z,1008.31
2022-07-26T04:22:21.230Z,1008.32
2022-07-26T04:23:21.233Z,1008.29
2022-07-26T04:24:21.219Z,1008.28
2022-07-26T04:25:21.212Z,1008.25
2022-07-26T04:26:21.194Z,1008.29
2022-07-26T04:27:21.202Z,1008.26
2022-07-26T04:28:21.180Z,1008.29
2022-07-26T04:29:21.173Z,1008.28
2022-07-26T04:30:21.151Z,1008.29
2022-07-26T04:31:21.229Z,1008.29
2022-07-26T04:32:21.125Z,1008.34
2022-07-26T04:33:21.123Z,1008.34
2022-07-26T04:34:21.122Z,1008.32
2022-07-26T04:35:21.104Z,1008.34
2022-07-26T04:36:21.170Z,1008.37
2022-07-26T04:37:21.083Z,1008.35
2022-07-26T04:38:21.065Z,1008.35
2022-07-26T04:39:21.064Z,1008.29
2022-07-26T04:40:21.649Z,1008.27
2022-07-26T04:41:21.035Z,1008.28
2022-07-26T04:42:21.165Z,1008.26
2022-07-26T04:43:21.019Z,1008.25
2022-07-26T04:44:21.007Z,1008.25
2022-07-26T04:45:20.996Z,1008.31
2022-07-26T04:46:21.052Z,1008.33
2022-07-26T04:47:20.977Z,1008.33
2022-07-26T04:48:20.957Z,1008.32
2022-07-26T04:49:20.958Z,1008.31
2022-07-26T04:50:20.957Z,1008.35
2022-07-26T04:51:20.920Z,1008.31
2022-07-26T04:52:20.910Z,1008.32
2022-07-26T04:53:20.910Z,1008.30
2022-07-26T04:54:20.899Z,1008.31
2022-07-26T04:55:20.886Z,1008.28
2022-07-26T04:56:20.870Z,1008.32
2022-07-26T04:57:20.858Z,1008.35
2022-07-26T04:58:20.839Z,1008.31
2022-07-26T04:59:21.973Z,1008.30
2022-07-26T05:00:22.532Z,1008.30
2022-07-26T05:01:20.881Z,1008.32
2022-07-26T05:02:20.915Z,1008.32
2022-07-26T05:03:20.870Z,1008.29
2022-07-26T05:04:20.782Z,1008.30
2022-07-26T05:05:20.776Z,1008.32
2022-07-26T05:06:20.765Z,1008.36
2022-07-26T05:07:20.753Z,1008.37
2022-07-26T05:08:20.734Z,1008.36
2022-07-26T05:09:20.809Z,1008.38
2022-07-26T05:10:20.712Z,1008.34
2022-07-26T05:11:20.704Z,1008.32
2022-07-26T05:12:20.689Z,1008.34
2022-07-26T05:13:23.104Z,1008.37
2022-07-26T05:14:21.698Z,1008.34
2022-07-26T05:15:20.660Z,1008.35
2022-07-26T05:16:20.662Z,1008.35
2022-07-26T05:17:20.679Z,1008.32
2022-07-26T05:18:20.635Z,1008.35
2022-07-26T05:19:20.634Z,1008.32
2022-07-26T05:20:20.597Z,1008.34
2022-07-26T05:21:20.623Z,1008.30
2022-07-26T05:22:20.577Z,1008.34
2022-07-26T05:23:20.647Z,1008.35
2022-07-26T05:24:20.549Z,1008.36
2022-07-26T05:25:20.558Z,1008.36
2022-07-26T05:26:20.530Z,1008.35
2022-07-26T05:27:20.518Z,1008.37
2022-07-26T05:28:20.508Z,1008.35
2022-07-26T05:29:20.500Z,1008.32
2022-07-26T05:30:20.492Z,1008.32
2022-07-26T05:31:20.552Z,1008.32
2022-07-26T05:32:20.668Z,1008.30
2022-07-26T05:33:20.462Z,1008.31
2022-07-26T05:34:20.441Z,1008.31
2022-07-26T05:35:20.453Z,1008.35
2022-07-26T05:36:20.512Z,1008.31
2022-07-26T05:37:20.435Z,1008.33
2022-07-26T05:38:20.401Z,1008.32
2022-07-26T05:39:20.389Z,1008.33
2022-07-26T05:40:20.394Z,1008.28
2022-07-26T05:41:20.363Z,1008.33
2022-07-26T05:42:20.355Z,1008.36
2022-07-26T05:43:20.344Z,1008.33
2022-07-26T05:44:20.333Z,1008.32
2022-07-26T05:45:20.336Z,1008.35
2022-07-26T05:46:20.365Z,1008.33
2022-07-26T05:47:20.304Z,1008.36
2022-07-26T05:48:20.286Z,1008.34
2022-07-26T05:49:20.365Z,1008.35
2022-07-26T05:50:20.290Z,1008.34
2022-07-26T05:51:20.257Z,1008.33
2022-07-26T05:52:20.257Z,1008.39
2022-07-26T05:53:20.246Z,1008.33
2022-07-26T05:54:20.226Z,1008.35
2022-07-26T05:55:20.238Z,1008.35
2022-07-26T05:56:20.207Z,1008.35
2022-07-26T05:57:20.196Z,1008.37
2022-07-26T05:58:20.188Z,1008.33
2022-07-26T05:59:20.179Z,1008.38
2022-07-26T06:00:20.179Z,1008.40
2022-07-26T06:01:20.169Z,1008.40
2022-07-26T06:02:20.185Z,1008.37
2022-07-26T06:03:20.147Z,1008.37
2022-07-26T06:04:20.147Z,1008.40
2022-07-26T06:05:20.141Z,1008.38
2022-07-26T06:06:20.093Z,1008.41
2022-07-26T06:07:20.090Z,1008.41
2022-07-26T06:08:20.073Z,1008.40
2022-07-26T06:09:20.063Z,1008.41
2022-07-26T06:10:20.069Z,1008.40
2022-07-26T06:11:20.047Z,1008.41
2022-07-26T06:12:20.032Z,1008.40
2022-07-26T06:13:20.026Z,1008.36
2022-07-26T06:14:20.005Z,1008.38
2022-07-26T06:15:20.013Z,1008.40
2022-07-26T06:16:19.985Z,1008.38
2022-07-26T06:17:20.102Z,1008.40
2022-07-26T06:18:19.968Z,1008.36
2022-07-26T06:19:19.956Z,1008.42
2022-07-26T06:20:19.957Z,1008.42
2022-07-26T06:21:19.936Z,1008.42
2022-07-26T06:22:19.928Z,1008.43
2022-07-26T06:23:33.879Z,1008.43
2022-07-26T06:24:20.888Z,1008.41
2022-07-26T06:25:19.936Z,1008.40
2022-07-26T06:26:19.877Z,1008.43
2022-07-26T06:27:19.878Z,1008.40
2022-07-26T06:28:19.859Z,1008.44
2022-07-26T06:29:19.850Z,1008.47
2022-07-26T06:30:19.849Z,1008.46
2022-07-26T06:31:19.902Z,1008.44
2022-07-26T06:32:19.811Z,1008.47
2022-07-26T06:33:19.800Z,1008.46
2022-07-26T06:34:19.789Z,1008.50
2022-07-26T06:35:19.781Z,1008.55
2022-07-26T06:36:19.770Z,1008.56
2022-07-26T06:37:19.762Z,1008.54
2022-07-26T06:38:19.750Z,1008.58
2022-07-26T06:39:19.740Z,1008.58
2022-07-26T06:40:19.733Z,1008.56
2022-07-26T06:41:19.714Z,1008.59
2022-07-26T06:42:19.721Z,1008.58
2022-07-26T06:43:19.692Z,1008.60
2022-07-26T06:44:19.674Z,1008.61
2022-07-26T06:45:19.708Z,1008.65
2022-07-26T06:46:19.770Z,1008.66
2022-07-26T06:47:19.654Z,1008.68
2022-07-26T06:48:19.643Z,1008.66
2022-07-26T06:49:22.615Z,1008.68
2022-07-26T06:50:20.883Z,1008.67
2022-07-26T06:51:20.626Z,1008.68
2022-07-26T06:52:19.681Z,1008.69
2022-07-26T06:53:19.598Z,1008.71
2022-07-26T06:54:19.580Z,1008.69
2022-07-26T06:55:19.576Z,1008.69
2022-07-26T06:56:19.567Z,1008.70
2022-07-26T06:57:19.548Z,1008.71
2022-07-26T06:58:19.537Z,1008.71
2022-07-26T06:59:19.529Z,1008.70
2022-07-26T07:00:19.521Z,1008.70
2022-07-26T07:01:58.119Z,1008.73
2022-07-26T07:02:20.588Z,1008.75
2022-07-26T07:03:19.482Z,1008.76
2022-07-26T07:04:19.557Z,1008.75
2022-07-26T07:05:19.545Z,1008.78
2022-07-26T07:06:19.462Z,1008.83
2022-07-26T07:07:19.444Z,1008.79
2022-07-26T07:08:19.433Z,1008.75
2022-07-26T07:09:19.422Z,1008.86
2022-07-26T07:10:19.425Z,1008.83
2022-07-26T07:11:19.422Z,1008.81
2022-07-26T07:12:19.384Z,1008.82
2022-07-26T07:13:19.374Z,1008.80
2022-07-26T07:14:19.364Z,1008.82
2022-07-26T07:15:19.354Z,1008.79
2022-07-26T07:16:19.425Z,1008.83
2022-07-26T07:17:20.385Z,1008.83
2022-07-26T07:18:19.318Z,1008.83
2022-07-26T07:19:19.316Z,1008.83
2022-07-26T07:20:19.296Z,1008.82
2022-07-26T07:21:19.309Z,1008.82
2022-07-26T07:22:19.277Z,1008.83
2022-07-26T07:23:19.269Z,1008.88
2022-07-26T07:24:19.249Z,1008.88
2022-07-26T07:25:22.012Z,1008.89
2022-07-26T07:26:20.256Z,1008.90
2022-07-26T07:27:19.224Z,1008.90
2022-07-26T07:28:19.221Z,1008.91
2022-07-26T07:29:19.218Z,1008.93
2022-07-26T07:30:19.180Z,1008.98
2022-07-26T07:31:19.279Z,1008.97
2022-07-26T07:32:19.799Z,1009.03
2022-07-26T07:33:22.635Z,1009.02
2022-07-26T07:34:19.704Z,1009.04
2022-07-26T07:35:19.353Z,1009.05
2022-07-26T07:36:19.134Z,1009.02
2022-07-26T07:37:19.939Z,1009.04
2022-07-26T07:38:19.175Z,1009.02
2022-07-26T07:39:19.104Z,1009.04
2022-07-26T07:40:19.089Z,1009.04
2022-07-26T07:41:19.126Z,1009.07
2022-07-26T07:42:19.244Z,1009.06
2022-07-26T07:43:19.054Z,1009.08
2022-07-26T07:44:19.046Z,1009.08
2022-07-26T07:45:19.037Z,1009.11
2022-07-26T07:46:19.058Z,1009.11
2022-07-26T07:47:19.016Z,1009.16
2022-07-26T07:48:18.997Z,1009.17
2022-07-26T07:49:19.071Z,1009.13
2022-07-26T07:50:18.977Z,1009.10
2022-07-26T07:51:18.970Z,1009.10
2022-07-26T07:52:18.956Z,1009.10
2022-07-26T07:53:18.948Z,1009.11
2022-07-26T07:54:18.928Z,1009.07
2022-07-26T07:55:40.712Z,1009.07
2022-07-26T07:56:19.930Z,1009.08
2022-07-26T07:57:18.900Z,1009.13
2022-07-26T07:58:19.135Z,1009.06
2022-07-26T07:59:18.882Z,1009.13
2022-07-26T08:00:18.981Z,1009.09
2022-07-26T08:01:18.935Z,1009.13
2022-07-26T08:02:19.701Z,1009.10
2022-07-26T08:03:19.273Z,1009.12
2022-07-26T08:04:18.932Z,1009.09
2022-07-26T08:05:18.824Z,1009.10
2022-07-26T08:06:18.804Z,1009.08
2022-07-26T08:07:18.814Z,1009.08
2022-07-26T08:08:18.849Z,1009.12
2022-07-26T08:09:18.776Z,1009.10
2022-07-26T08:10:18.895Z,1009.09
2022-07-26T08:11:18.766Z,1009.13
2022-07-26T08:12:18.758Z,1009.26
2022-07-26T08:13:21.136Z,1009.18
2022-07-26T08:14:18.832Z,1009.15
2022-07-26T08:15:19.472Z,1009.14
2022-07-26T08:16:18.795Z,1009.10
2022-07-26T08:17:18.707Z,1009.11
2022-07-26T08:18:22.329Z,1009.07
2022-07-26T08:19:18.693Z,1009.05
2022-07-26T08:20:18.778Z,1009.04
2022-07-26T08:21:18.664Z,1009.03
2022-07-26T08:22:18.681Z,1008.99
2022-07-26T08:23:18.623Z,1009.04
2022-07-26T08:24:18.683Z,1009.01
2022-07-26T08:25:18.602Z,1009.05
2022-07-26T08:26:18.703Z,1009.06
2022-07-26T08:27:18.593Z,1009.02
2022-07-26T08:28:38.084Z,1009.06
2022-07-26T08:29:19.555Z,1009.05
2022-07-26T08:30:18.591Z,1009.00
2022-07-26T08:31:18.551Z,1009.07
2022-07-26T08:32:18.695Z,1009.10
2022-07-26T08:33:18.516Z,1009.11
2022-07-26T08:34:18.645Z,1009.08
2022-07-26T08:35:19.771Z,1009.13
2022-07-26T08:36:18.548Z,1009.33
2022-07-26T08:37:18.738Z,1009.12
2022-07-26T08:38:18.657Z,1009.23
2022-07-26T08:39:18.458Z,1009.15
2022-07-26T08:40:18.576Z,1009.15
2022-07-26T08:41:18.691Z,1009.14
2022-07-26T08:42:22.805Z,1009.13
2022-07-26T08:43:18.410Z,1009.17
2022-07-26T08:44:18.514Z,1009.13
2022-07-26T08:45:18.392Z,1009.17
2022-07-26T08:46:24.362Z,1009.12
2022-07-26T08:47:35.083Z,1009.17
2022-07-26T08:48:19.361Z,1009.17
2022-07-26T08:49:18.448Z,1009.19
2022-07-26T08:50:18.463Z,1009.22
2022-07-26T08:51:18.323Z,1009.24
2022-07-26T08:52:18.336Z,1009.22
2022-07-26T08:53:18.305Z,1009.25
2022-07-26T08:54:18.482Z,1009.29
2022-07-26T08:55:18.286Z,1009.21
2022-07-26T08:56:18.497Z,1009.26
2022-07-26T08:57:18.276Z,1009.24
2022-07-26T08:58:18.358Z,1009.29
2022-07-26T08:59:21.347Z,1009.29
2022-07-26T09:00:18.369Z,1009.29
2022-07-26T09:01:18.339Z,1009.23
2022-07-26T09:02:18.389Z,1009.25
2022-07-26T09:03:18.233Z,1009.20
2022-07-26T09:04:30.574Z,1009.21
2022-07-26T09:05:19.180Z,1009.19
2022-07-26T09:06:18.301Z,1009.20
2022-07-26T09:07:18.173Z,1009.25
2022-07-26T09:08:18.364Z,1009.18
2022-07-26T09:09:18.143Z,1009.18
2022-07-26T09:10:18.235Z,1009.23
2022-07-26T09:11:18.124Z,1009.26
2022-07-26T09:12:18.267Z,1009.27
2022-07-26T09:13:18.100Z,1009.30
2022-07-26T09:14:18.167Z,1009.29
2022-07-26T09:15:18.076Z,1009.31
2022-07-26T09:16:18.176Z,1009.35
2022-07-26T09:17:18.067Z,1009.28
2022-07-26T09:18:18.245Z,1009.30
2022-07-26T09:19:18.039Z,1009.35
2022-07-26T09:20:18.151Z,1009.39
2022-07-26T09:21:19.019Z,1009.42
2022-07-26T09:22:18.429Z,1009.53
2022-07-26T09:23:18.002Z,1009.43
2022-07-26T09:24:18.158Z,1009.58
2022-07-26T09:25:17.980Z,1009.61
2022-07-26T09:26:18.042Z,1009.42
2022-07-26T09:27:17.961Z,1009.41
2022-07-26T09:28:18.060Z,1009.32
2022-07-26T09:29:17.952Z,1009.39
2022-07-26T09:30:18.044Z,1009.54
2022-07-26T09:31:17.991Z,1009.34
2022-07-26T09:32:18.179Z,1009.37
2022-07-26T09:33:17.892Z,1009.28
2022-07-26T09:34:18.046Z,1009.33
2022-07-26T09:35:49.995Z,1009.34
2022-07-26T09:36:18.919Z,1009.34
2022-07-26T09:37:17.870Z,1009.30
2022-07-26T09:38:17.907Z,1009.27
2022-07-26T09:39:17.836Z,1009.35
2022-07-26T09:40:18.908Z,1009.36
2022-07-26T09:41:18.622Z,1009.35
2022-07-26T09:42:28.676Z,1009.54
2022-07-26T09:43:24.031Z,1009.35
2022-07-26T09:44:18.783Z,1009.63
2022-07-26T09:45:17.769Z,1009.55
2022-07-26T09:46:17.910Z,1009.53
2022-07-26T09:47:17.770Z,1009.53
2022-07-26T09:48:17.839Z,1009.48
2022-07-26T09:49:17.775Z,1009.55
2022-07-26T09:50:18.236Z,1009.55
2022-07-26T09:51:17.712Z,1009.56
2022-07-26T09:52:18.813Z,1009.54
2022-07-26T09:53:17.714Z,1009.54
2022-07-26T09:54:17.777Z,1009.51
2022-07-26T09:55:17.675Z,1009.57
2022-07-26T09:56:17.895Z,1009.23
2022-07-26T09:57:17.653Z,1009.24
2022-07-26T09:58:17.808Z,1009.50
2022-07-26T09:59:17.640Z,1009.51
2022-07-26T10:00:17.666Z,1009.53
2022-07-26T10:01:17.673Z,1009.36
2022-07-26T10:02:17.630Z,1009.32
2022-07-26T10:03:17.666Z,1009.31
2022-07-26T10:04:17.692Z,1009.54
2022-07-26T10:05:17.571Z,1009.32
2022-07-26T10:06:17.708Z,1009.37
2022-07-26T10:07:17.571Z,1009.38
2022-07-26T10:08:17.771Z,1009.39
2022-07-26T10:09:17.532Z,1009.37
2022-07-26T10:10:17.692Z,1009.33
2022-07-26T10:11:17.525Z,1009.35
2022-07-26T10:12:17.642Z,1009.58
2022-07-26T10:13:17.515Z,1009.65
2022-07-26T10:14:17.614Z,1009.37
2022-07-26T10:15:17.525Z,1009.36
2022-07-26T10:16:17.885Z,1009.38
2022-07-26T10:17:17.458Z,1009.48
2022-07-26T10:18:18.406Z,1009.37
2022-07-26T10:19:17.442Z,1009.35
2022-07-26T10:20:19.339Z,1009.36
2022-07-26T10:21:18.439Z,1009.40
2022-07-26T10:22:17.559Z,1009.71
2022-07-26T10:23:17.402Z,1009.62
2022-07-26T10:24:17.528Z,1009.45
2022-07-26T10:25:17.398Z,1009.42
2022-07-26T10:26:18.153Z,1009.44
2022-07-26T10:27:17.362Z,1009.39
2022-07-26T10:28:17.461Z,1009.44
2022-07-26T10:29:17.333Z,1009.41
2022-07-26T10:30:17.583Z,1009.46
2022-07-26T10:31:17.347Z,1009.56
2022-07-26T10:32:17.584Z,1009.47
2022-07-26T10:33:17.306Z,1009.47
2022-07-26T10:34:17.394Z,1009.42
2022-07-26T10:35:17.273Z,1009.41
2022-07-26T10:36:17.330Z,1009.42
2022-07-26T10:37:17.260Z,1009.40
2022-07-26T10:38:17.477Z,1009.43
2022-07-26T10:39:17.234Z,1009.41
2022-07-26T10:40:17.438Z,1009.43
2022-07-26T10:41:17.223Z,1009.46
2022-07-26T10:42:17.303Z,1009.56
2022-07-26T10:43:40.029Z,1009.49
2022-07-26T10:44:18.310Z,1009.67
2022-07-26T10:45:17.173Z,1009.51
2022-07-26T10:46:17.303Z,1009.45
2022-07-26T10:47:17.161Z,1009.47
2022-07-26T10:48:17.339Z,1009.54
2022-07-26T10:49:17.154Z,1009.53
2022-07-26T10:50:17.203Z,1009.51
2022-07-26T10:51:17.105Z,1009.59
2022-07-26T10:52:17.265Z,1009.39
2022-07-26T10:53:17.095Z,1009.48
2022-07-26T10:54:17.219Z,1009.47
2022-07-26T10:55:17.074Z,1009.42
2022-07-26T10:56:17.147Z,1009.45
2022-07-26T10:57:17.059Z,1009.42
2022-07-26T10:58:18.076Z,1009.45
2022-07-26T10:59:28.043Z,1009.43
2022-07-26T11:00:18.153Z,1009.44
2022-07-26T11:01:17.129Z,1009.44
2022-07-26T11:02:17.458Z,1009.47
2022-07-26T11:03:17.034Z,1009.49
2022-07-26T11:04:17.099Z,1009.46
2022-07-26T11:05:16.970Z,1009.50
2022-07-26T11:06:17.089Z,1009.51
2022-07-26T11:07:17.162Z,1009.51
2022-07-26T11:08:17.062Z,1009.51
2022-07-26T11:09:16.923Z,1009.47
2022-07-26T11:10:16.985Z,1009.47
2022-07-26T11:11:16.903Z,1009.45
2022-07-26T11:12:17.042Z,1009.45
2022-07-26T11:13:16.886Z,1009.36
2022-07-26T11:14:18.047Z,1009.42
2022-07-26T11:15:16.867Z,1009.39
2022-07-26T11:16:16.981Z,1009.30
2022-07-26T11:17:16.857Z,1009.34
2022-07-26T11:18:16.850Z,1009.35
2022-07-26T11:19:16.826Z,1009.31
2022-07-26T11:20:16.948Z,1009.36
2022-07-26T11:21:16.802Z,1009.38
2022-07-26T11:22:17.009Z,1009.40
2022-07-26T11:23:16.789Z,1009.50
2022-07-26T11:24:16.934Z,1009.53
2022-07-26T11:25:16.770Z,1009.45
2022-07-26T11:26:16.883Z,1009.48
2022-07-26T11:27:16.740Z,1009.50
2022-07-26T11:28:16.934Z,1009.49
2022-07-26T11:29:17.803Z,1009.48
2022-07-26T11:30:17.782Z,1009.51
2022-07-26T11:31:16.780Z,1009.50
2022-07-26T11:32:18.111Z,1009.52
2022-07-26T11:33:16.674Z,1009.60
2022-07-26T11:34:16.794Z,1009.84
2022-07-26T11:35:16.658Z,1009.79
2022-07-26T11:36:16.757Z,1009.75
2022-07-26T11:37:16.637Z,1009.75
2022-07-26T11:38:16.886Z,1009.69
2022-07-26T11:39:16.606Z,1009.47
2022-07-26T11:40:16.748Z,1009.37
2022-07-26T11:41:16.598Z,1009.47
2022-07-26T11:42:16.689Z,1009.36
2022-07-26T11:43:16.579Z,1009.46
2022-07-26T11:44:16.775Z,1009.48
2022-07-26T11:45:16.563Z,1009.35
2022-07-26T11:46:16.682Z,1009.43
2022-07-26T11:47:16.546Z,1009.51
2022-07-26T11:48:16.942Z,1009.46
2022-07-26T11:49:16.575Z,1009.50
2022-07-26T11:50:22.770Z,1009.48
2022-07-26T11:51:17.514Z,1009.24
2022-07-26T11:52:25.075Z,1009.35
2022-07-26T11:53:17.559Z,1009.36
2022-07-26T11:54:16.806Z,1009.02
2022-07-26T11:55:16.474Z,1009.06
2022-07-26T11:56:16.587Z,1009.34
2022-07-26T11:57:16.454Z,1009.31
2022-07-26T11:58:17.063Z,1008.93
2022-07-26T11:59:16.438Z,1009.03
2022-07-26T12:00:17.178Z,1009.16
2022-07-26T12:01:16.409Z,1009.14
2022-07-26T12:02:16.790Z,1009.17
2022-07-26T12:03:16.389Z,1009.20
2022-07-26T12:04:17.127Z,1009.02
2022-07-26T12:05:16.601Z,1009.05